createdAt,value
2018-11-23T00:00:20.436Z,20.20
2018-11-23T00:01:20.443Z,20.50
2018-11-23T00:02:20.452Z,20.40
2018-11-23T00:03:20.459Z,20.50
2018-11-23T00:04:20.480Z,20.30
2018-11-23T00:05:20.474Z,20.10
2018-11-23T00:06:20.487Z,20.20
2018-11-23T00:07:20.493Z,20.60
2018-11-23T00:08:20.497Z,20.50
2018-11-23T00:09:20.513Z,20.10
2018-11-23T00:10:20.517Z,20.90
2018-11-23T00:11:20.522Z,20.40
2018-11-23T00:12:20.544Z,21.20
2018-11-23T00:13:20.541Z,20.00
2018-11-23T00:14:20.547Z,20.90
2018-11-23T00:15:20.566Z,20.80
2018-11-23T00:16:20.564Z,20.60
2018-11-23T00:17:20.574Z,21.00
2018-11-23T00:18:20.582Z,20.50
2018-11-23T00:19:20.597Z,20.20
2018-11-23T00:20:20.596Z,20.90
2018-11-23T00:21:20.605Z,20.70
2018-11-23T00:22:20.616Z,20.70
2018-11-23T00:23:20.621Z,22.00
2018-11-23T00:24:20.631Z,21.30
2018-11-23T00:25:20.639Z,20.20
2018-11-23T00:26:20.651Z,20.50
2018-11-23T00:27:20.655Z,21.80
2018-11-23T00:28:20.662Z,20.40
2018-11-23T00:29:20.675Z,25.00
2018-11-23T00:30:20.676Z,23.30
2018-11-23T00:31:20.683Z,22.10
2018-11-23T00:32:20.700Z,21.80
2018-11-23T00:33:20.700Z,21.90
2018-11-23T00:34:20.707Z,21.30
2018-11-23T00:35:20.718Z,22.10
2018-11-23T00:36:20.724Z,20.80
2018-11-23T00:37:20.734Z,21.70
2018-11-23T00:38:20.752Z,21.50
2018-11-23T00:39:20.748Z,22.00
2018-11-23T00:40:20.755Z,22.30
2018-11-23T00:41:20.763Z,22.00
2018-11-23T00:42:20.771Z,20.10
2018-11-23T00:43:20.779Z,21.80
2018-11-23T00:44:20.788Z,20.80
2018-11-23T00:45:20.797Z,21.60
2018-11-23T00:46:20.808Z,20.60
2018-11-23T00:47:20.814Z,20.20
2018-11-23T00:48:20.818Z,20.90
2018-11-23T00:49:20.828Z,21.20
2018-11-23T00:50:20.834Z,20.70
2018-11-23T00:51:20.848Z,21.10
2018-11-23T00:52:20.850Z,21.40
2018-11-23T00:53:20.873Z,21.40
2018-11-23T00:54:20.865Z,20.10
2018-11-23T00:55:20.873Z,20.70
2018-11-23T00:56:20.882Z,21.10
2018-11-23T00:57:20.890Z,20.50
2018-11-23T00:58:20.897Z,20.90
2018-11-23T00:59:20.906Z,20.40
2018-11-23T01:00:20.914Z,21.30
2018-11-23T01:01:20.921Z,20.20
2018-11-23T01:02:20.929Z,20.80
2018-11-23T01:03:20.939Z,21.60
2018-11-23T01:04:20.945Z,21.00
2018-11-23T01:05:20.958Z,20.20
2018-11-23T01:06:20.961Z,20.70
2018-11-23T01:07:20.970Z,20.40
2018-11-23T01:08:20.979Z,21.10
2018-11-23T01:09:20.985Z,20.30
2018-11-23T01:10:20.993Z,20.10
2018-11-23T01:11:21.002Z,19.40
2018-11-23T01:12:21.011Z,20.30
2018-11-23T01:13:21.018Z,20.00
2018-11-23T01:14:21.026Z,20.50
2018-11-23T01:15:21.034Z,20.00
2018-11-23T01:16:21.044Z,20.50
2018-11-23T01:17:21.050Z,19.40
2018-11-23T01:18:21.058Z,20.80
2018-11-23T01:19:21.066Z,19.90
2018-11-23T01:20:21.082Z,20.60
2018-11-23T01:21:21.085Z,20.10
2018-11-23T01:22:21.092Z,19.30
2018-11-23T01:23:21.201Z,20.60
2018-11-23T01:24:21.107Z,20.80
2018-11-23T01:25:21.119Z,20.30
2018-11-23T01:26:21.125Z,19.40
2018-11-23T01:27:21.138Z,20.70
2018-11-23T01:28:21.142Z,20.30
2018-11-23T01:29:21.149Z,20.90
2018-11-23T01:30:21.157Z,20.00
2018-11-23T01:31:21.167Z,19.70
2018-11-23T01:32:21.180Z,19.70
2018-11-23T01:33:21.186Z,20.20
2018-11-23T01:34:21.194Z,20.80
2018-11-23T01:35:21.199Z,20.30
2018-11-23T01:36:21.208Z,20.50
2018-11-23T01:37:21.216Z,20.30
2018-11-23T01:38:21.227Z,20.20
2018-11-23T01:39:21.233Z,19.90
2018-11-23T01:40:21.239Z,19.90
2018-11-23T01:41:21.248Z,20.40
2018-11-23T01:42:21.262Z,20.20
2018-11-23T01:43:21.266Z,20.40
2018-11-23T01:44:21.272Z,19.50
2018-11-23T01:45:21.286Z,19.90
2018-11-23T01:46:21.293Z,19.40
2018-11-23T01:47:21.306Z,20.00
2018-11-23T01:48:21.306Z,20.10
2018-11-23T01:49:21.324Z,19.50
2018-11-23T01:50:21.321Z,20.50
2018-11-23T01:51:21.337Z,19.80
2018-11-23T01:52:21.342Z,19.90
2018-11-23T01:53:21.344Z,20.50
2018-11-23T01:54:21.355Z,20.80
2018-11-23T01:55:21.362Z,20.60
2018-11-23T01:56:21.373Z,20.90
2018-11-23T01:57:21.378Z,19.90
2018-11-23T01:58:21.390Z,20.80
2018-11-23T01:59:21.395Z,19.70
2018-11-23T02:00:21.405Z,20.70
2018-11-23T02:01:21.425Z,20.60
2018-11-23T02:02:21.419Z,19.60
2018-11-23T02:03:21.427Z,20.10
2018-11-23T02:04:21.434Z,19.70
2018-11-23T02:05:21.447Z,20.40
2018-11-23T02:06:21.456Z,20.80
2018-11-23T02:07:21.461Z,20.00
2018-11-23T02:08:21.468Z,20.40
2018-11-23T02:09:21.477Z,21.20
2018-11-23T02:10:21.484Z,19.70
2018-11-23T02:11:21.494Z,22.10
2018-11-23T02:12:21.502Z,20.00
2018-11-23T02:13:21.508Z,20.60
2018-11-23T02:14:21.518Z,20.80
2018-11-23T02:15:21.531Z,19.70
2018-11-23T02:16:21.535Z,19.90
2018-11-23T02:17:21.544Z,20.10
2018-11-23T02:18:21.551Z,20.40
2018-11-23T02:19:21.558Z,20.20
2018-11-23T02:20:21.573Z,19.90
2018-11-23T02:21:21.574Z,20.40
2018-11-23T02:22:21.582Z,20.90
2018-11-23T02:23:21.594Z,21.40
2018-11-23T02:24:21.598Z,20.20
2018-11-23T02:25:21.625Z,20.50
2018-11-23T02:26:21.616Z,21.20
2018-11-23T02:27:21.628Z,21.00
2018-11-23T02:28:21.631Z,20.30
2018-11-23T02:29:21.639Z,20.30
2018-11-23T02:30:21.655Z,20.50
2018-11-23T02:31:21.655Z,20.60
2018-11-23T02:32:21.667Z,20.40
2018-11-23T02:33:21.672Z,20.70
2018-11-23T02:34:21.678Z,20.90
2018-11-23T02:35:21.688Z,20.20
2018-11-23T02:36:21.694Z,21.50
2018-11-23T02:37:21.703Z,21.30
2018-11-23T02:38:21.710Z,20.60
2018-11-23T02:39:21.718Z,20.90
2018-11-23T02:40:21.727Z,20.50
2018-11-23T02:41:21.733Z,21.30
2018-11-23T02:42:21.749Z,20.00
2018-11-23T02:43:21.759Z,21.30
2018-11-23T02:44:21.762Z,20.50
2018-11-23T02:45:21.768Z,20.50
2018-11-23T02:46:21.772Z,21.00
2018-11-23T02:47:21.787Z,20.70
2018-11-23T02:48:21.790Z,20.60
2018-11-23T02:49:21.797Z,20.80
2018-11-23T02:50:21.808Z,20.40
2018-11-23T02:51:21.816Z,22.00
2018-11-23T02:52:21.821Z,21.10
2018-11-23T02:53:21.829Z,20.90
2018-11-23T02:54:21.835Z,20.40
2018-11-23T02:55:21.848Z,21.00
2018-11-23T02:56:21.852Z,21.70
2018-11-23T02:57:21.863Z,20.90
2018-11-23T02:58:21.867Z,21.70
2018-11-23T02:59:23.959Z,21.60
2018-11-23T03:00:21.883Z,21.10
2018-11-23T03:01:21.890Z,21.90
2018-11-23T03:02:21.901Z,22.30
2018-11-23T03:03:21.907Z,21.50
2018-11-23T03:04:21.914Z,21.20
2018-11-23T03:05:21.922Z,21.20
2018-11-23T03:06:21.928Z,20.90
2018-11-23T03:07:21.940Z,21.30
2018-11-23T03:08:21.946Z,21.60
2018-11-23T03:09:21.953Z,21.90
2018-11-23T03:10:21.959Z,21.90
2018-11-23T03:11:21.962Z,22.20
2018-11-23T03:12:21.970Z,21.70
2018-11-23T03:13:21.978Z,22.40
2018-11-23T03:14:21.994Z,21.10
2018-11-23T03:15:21.995Z,22.60
2018-11-23T03:16:22.010Z,20.70
2018-11-23T03:17:22.013Z,21.80
2018-11-23T03:18:22.016Z,21.50
2018-11-23T03:19:22.027Z,22.40
2018-11-23T03:20:22.033Z,21.70
2018-11-23T03:21:22.042Z,21.50
2018-11-23T03:22:22.047Z,21.30
2018-11-23T03:23:22.055Z,21.00
2018-11-23T03:24:22.068Z,21.00
2018-11-23T03:25:22.078Z,22.50
2018-11-23T03:26:22.078Z,20.50
2018-11-23T03:27:22.087Z,22.10
2018-11-23T03:28:22.095Z,21.30
2018-11-23T03:29:22.106Z,21.90
2018-11-23T03:30:22.111Z,22.40
2018-11-23T03:31:22.121Z,22.30
2018-11-23T03:32:22.135Z,22.20
2018-11-23T03:33:22.134Z,22.40
2018-11-23T03:34:22.141Z,21.50
2018-11-23T03:35:22.158Z,22.40
2018-11-23T03:36:22.157Z,22.30
2018-11-23T03:37:22.164Z,23.00
2018-11-23T03:38:22.185Z,21.80
2018-11-23T03:39:22.182Z,22.80
2018-11-23T03:40:22.190Z,21.40
2018-11-23T03:41:22.195Z,22.30
2018-11-23T03:42:22.214Z,23.40
2018-11-23T03:43:22.209Z,22.20
2018-11-23T03:44:22.217Z,21.50
2018-11-23T03:45:22.247Z,23.30
2018-11-23T03:46:22.233Z,22.60
2018-11-23T03:47:22.239Z,23.00
2018-11-23T03:48:22.249Z,22.50
2018-11-23T03:49:22.266Z,22.30
2018-11-23T03:50:22.263Z,23.30
2018-11-23T03:51:22.272Z,23.10
2018-11-23T03:52:22.280Z,22.50
2018-11-23T03:53:22.298Z,22.70
2018-11-23T03:54:22.294Z,22.60
2018-11-23T03:55:22.305Z,22.90
2018-11-23T03:56:22.314Z,23.50
2018-11-23T03:57:22.316Z,22.20
2018-11-23T03:58:22.324Z,23.30
2018-11-23T03:59:22.332Z,22.50
2018-11-23T04:00:22.340Z,24.20
2018-11-23T04:01:22.347Z,22.60
2018-11-23T04:02:22.353Z,23.60
2018-11-23T04:03:22.366Z,23.90
2018-11-23T04:04:22.376Z,24.10
2018-11-23T04:05:22.384Z,23.60
2018-11-23T04:06:22.384Z,22.80
2018-11-23T04:07:22.391Z,23.40
2018-11-23T04:08:22.401Z,22.80
2018-11-23T04:09:22.407Z,23.50
2018-11-23T04:10:22.422Z,22.70
2018-11-23T04:11:22.425Z,23.40
2018-11-23T04:12:22.431Z,23.50
2018-11-23T04:13:22.436Z,23.20
2018-11-23T04:14:22.455Z,23.20
2018-11-23T04:15:22.459Z,23.00
2018-11-23T04:16:22.462Z,22.40
2018-11-23T04:17:22.469Z,22.90
2018-11-23T04:18:22.475Z,23.40
2018-11-23T04:19:22.486Z,23.90
2018-11-23T04:20:22.491Z,22.00
2018-11-23T04:21:22.497Z,23.30
2018-11-23T04:22:22.506Z,23.10
2018-11-23T04:23:22.516Z,23.00
2018-11-23T04:24:22.519Z,23.40
2018-11-23T04:25:22.529Z,23.50
2018-11-23T04:26:24.812Z,23.30
2018-11-23T04:27:22.542Z,22.90
2018-11-23T04:28:22.549Z,22.90
2018-11-23T04:29:22.562Z,23.50
2018-11-23T04:30:22.567Z,22.70
2018-11-23T04:31:22.576Z,23.60
2018-11-23T04:32:22.580Z,23.20
2018-11-23T04:33:22.592Z,23.50
2018-11-23T04:34:22.595Z,23.50
2018-11-23T04:35:22.606Z,23.60
2018-11-23T04:36:22.611Z,23.10
2018-11-23T04:37:22.618Z,23.90
2018-11-23T04:38:22.624Z,22.60
2018-11-23T04:39:22.732Z,23.60
2018-11-23T04:40:22.639Z,23.30
2018-11-23T04:41:22.649Z,23.40
2018-11-23T04:42:22.655Z,23.10
2018-11-23T04:43:22.667Z,24.40
2018-11-23T04:44:22.669Z,24.30
2018-11-23T04:45:22.678Z,23.80
2018-11-23T04:46:22.685Z,22.40
2018-11-23T04:47:22.693Z,23.70
2018-11-23T04:48:22.702Z,23.60
2018-11-23T04:49:22.712Z,23.90
2018-11-23T04:50:22.714Z,25.20
2018-11-23T04:51:22.722Z,24.60
2018-11-23T04:52:22.729Z,23.90
2018-11-23T04:53:22.738Z,23.20
2018-11-23T04:54:22.745Z,23.30
2018-11-23T04:55:22.751Z,23.70
2018-11-23T04:56:22.760Z,24.50
2018-11-23T04:57:22.768Z,23.50
2018-11-23T04:58:22.775Z,22.60
2018-11-23T04:59:22.782Z,23.50
2018-11-23T05:00:22.790Z,24.00
2018-11-23T05:01:22.802Z,23.40
2018-11-23T05:02:22.804Z,23.90
2018-11-23T05:03:22.813Z,23.00
2018-11-23T05:04:22.822Z,23.60
2018-11-23T05:05:22.833Z,23.60
2018-11-23T05:06:22.836Z,24.10
2018-11-23T05:07:22.849Z,24.90
2018-11-23T05:08:22.852Z,24.90
2018-11-23T05:09:22.881Z,23.60
2018-11-23T05:10:22.865Z,24.10
2018-11-23T05:11:22.873Z,24.70
2018-11-23T05:12:22.880Z,24.70
2018-11-23T05:13:22.889Z,24.40
2018-11-23T05:14:22.893Z,25.50
2018-11-23T05:15:22.903Z,25.60
2018-11-23T05:16:22.911Z,23.70
2018-11-23T05:17:22.918Z,24.50
2018-11-23T05:18:22.935Z,23.70
2018-11-23T05:19:22.932Z,24.20
2018-11-23T05:20:22.940Z,23.80
2018-11-23T05:21:22.947Z,24.30
2018-11-23T05:22:22.954Z,23.50
2018-11-23T05:23:22.961Z,24.00
2018-11-23T05:24:22.969Z,24.10
2018-11-23T05:25:22.978Z,23.90
2018-11-23T05:26:22.983Z,23.80
2018-11-23T05:27:22.993Z,24.10
2018-11-23T05:28:23.014Z,24.90
2018-11-23T05:29:23.007Z,24.70
2018-11-23T05:30:23.015Z,23.90
2018-11-23T05:31:23.022Z,24.40
2018-11-23T05:32:23.030Z,25.00
2018-11-23T05:33:23.043Z,24.00
2018-11-23T05:34:23.055Z,24.60
2018-11-23T05:35:23.052Z,24.60
2018-11-23T05:36:23.059Z,25.10
2018-11-23T05:37:23.069Z,24.80
2018-11-23T05:38:23.077Z,24.10
2018-11-23T05:39:23.082Z,25.10
2018-11-23T05:40:23.091Z,25.10
2018-11-23T05:41:23.129Z,24.90
2018-11-23T05:42:23.106Z,24.40
2018-11-23T05:43:23.117Z,24.60
2018-11-23T05:44:23.119Z,25.70
2018-11-23T05:45:23.126Z,23.40
2018-11-23T05:46:23.133Z,25.00
2018-11-23T05:47:23.141Z,25.70
2018-11-23T05:48:26.955Z,24.90
2018-11-23T05:49:23.163Z,23.30
2018-11-23T05:50:23.163Z,23.20
2018-11-23T05:51:23.171Z,25.20
2018-11-23T05:52:23.383Z,24.50
2018-11-23T05:53:23.205Z,24.30
2018-11-23T05:54:23.193Z,25.50
2018-11-23T05:55:23.209Z,25.40
2018-11-23T05:56:23.207Z,24.90
2018-11-23T05:57:23.216Z,25.20
2018-11-23T05:58:23.223Z,25.30
2018-11-23T05:59:23.237Z,26.40
2018-11-23T06:00:23.237Z,24.80
2018-11-23T06:01:23.246Z,25.50
2018-11-23T06:02:23.253Z,25.10
2018-11-23T06:03:23.262Z,26.50
2018-11-23T06:04:23.267Z,25.60
2018-11-23T06:05:23.277Z,25.10
2018-11-23T06:06:23.293Z,26.20
2018-11-23T06:07:23.292Z,25.70
2018-11-23T06:08:23.298Z,26.40
2018-11-23T06:09:23.305Z,25.60
2018-11-23T06:10:23.312Z,25.00
2018-11-23T06:11:23.325Z,26.30
2018-11-23T06:12:23.332Z,26.80
2018-11-23T06:13:23.336Z,25.50
2018-11-23T06:14:23.341Z,25.40
2018-11-23T06:15:23.349Z,25.80
2018-11-23T06:16:23.362Z,25.10
2018-11-23T06:17:23.364Z,26.10
2018-11-23T06:18:23.373Z,26.30
2018-11-23T06:19:23.380Z,26.20
2018-11-23T06:20:23.387Z,25.30
2018-11-23T06:21:23.396Z,25.60
2018-11-23T06:22:23.409Z,25.20
2018-11-23T06:23:23.407Z,25.60
2018-11-23T06:24:23.415Z,27.10
2018-11-23T06:25:23.423Z,27.00
2018-11-23T06:26:23.429Z,25.70
2018-11-23T06:27:23.441Z,26.60
2018-11-23T06:28:23.447Z,26.70
2018-11-23T06:29:23.451Z,27.10
2018-11-23T06:30:23.459Z,25.70
2018-11-23T06:31:23.465Z,26.20
2018-11-23T06:32:23.472Z,26.30
2018-11-23T06:33:23.481Z,26.50
2018-11-23T06:34:23.489Z,27.70
2018-11-23T06:35:23.495Z,25.80
2018-11-23T06:36:23.503Z,26.70
2018-11-23T06:37:23.510Z,25.60
2018-11-23T06:38:23.516Z,27.00
2018-11-23T06:39:23.523Z,26.80
2018-11-23T06:40:23.532Z,28.20
2018-11-23T06:41:23.539Z,27.20
2018-11-23T06:42:23.547Z,27.60
2018-11-23T06:43:23.552Z,26.80
2018-11-23T06:44:23.560Z,26.20
2018-11-23T06:45:23.567Z,26.90
2018-11-23T06:46:23.608Z,25.80
2018-11-23T06:47:23.584Z,27.20
2018-11-23T06:48:23.589Z,26.70
2018-11-23T06:49:23.596Z,27.90
2018-11-23T06:50:23.622Z,27.60
2018-11-23T06:51:23.620Z,27.60
2018-11-23T06:52:23.618Z,26.50
2018-11-23T06:53:23.635Z,27.10
2018-11-23T06:54:23.639Z,27.40
2018-11-23T06:55:23.639Z,26.70
2018-11-23T06:56:23.650Z,26.70
2018-11-23T06:57:23.654Z,27.40
2018-11-23T06:58:23.661Z,27.10
2018-11-23T06:59:23.668Z,27.30
2018-11-23T07:00:23.678Z,26.60
2018-11-23T07:01:23.684Z,27.60
2018-11-23T07:02:23.691Z,27.00
2018-11-23T07:03:23.699Z,26.50
2018-11-23T07:04:23.706Z,28.20
2018-11-23T07:05:23.714Z,27.30
2018-11-23T07:06:23.720Z,27.40
2018-11-23T07:07:23.728Z,26.60
2018-11-23T07:08:23.741Z,27.80
2018-11-23T07:09:23.741Z,27.10
2018-11-23T07:10:23.749Z,25.90
2018-11-23T07:11:23.761Z,27.90
2018-11-23T07:12:23.761Z,27.80
2018-11-23T07:13:23.770Z,26.90
2018-11-23T07:14:23.776Z,26.70
2018-11-23T07:15:23.785Z,27.10
2018-11-23T07:16:23.792Z,28.00
2018-11-23T07:17:23.800Z,26.20
2018-11-23T07:18:23.807Z,27.40
2018-11-23T07:19:23.816Z,28.50
2018-11-23T07:20:23.828Z,28.20
2018-11-23T07:21:23.830Z,27.50
2018-11-23T07:22:23.840Z,27.30
2018-11-23T07:23:23.846Z,28.30
2018-11-23T07:24:23.849Z,27.10
2018-11-23T07:25:23.859Z,27.30
2018-11-23T07:26:23.864Z,27.90
2018-11-23T07:27:23.872Z,26.30
2018-11-23T07:28:23.881Z,27.30
2018-11-23T07:29:23.887Z,27.60
2018-11-23T07:30:23.898Z,27.90
2018-11-23T07:31:23.908Z,26.70
2018-11-23T07:32:23.911Z,27.20
2018-11-23T07:33:23.918Z,27.10
2018-11-23T07:34:23.924Z,28.10
2018-11-23T07:35:23.931Z,27.80
2018-11-23T07:36:23.940Z,28.10
2018-11-23T07:37:23.948Z,27.10
2018-11-23T07:38:23.952Z,27.30
2018-11-23T07:39:23.960Z,27.30
2018-11-23T07:40:23.967Z,28.50
2018-11-23T07:41:23.973Z,26.40
2018-11-23T07:42:23.980Z,26.50
2018-11-23T07:43:23.988Z,26.50
2018-11-23T07:44:23.995Z,25.90
2018-11-23T07:45:24.015Z,27.50
2018-11-23T07:46:24.013Z,25.80
2018-11-23T07:47:24.018Z,27.50
2018-11-23T07:48:24.028Z,26.30
2018-11-23T07:49:24.032Z,27.70
2018-11-23T07:50:24.043Z,27.50
2018-11-23T07:51:24.053Z,27.50
2018-11-23T07:52:24.057Z,28.10
2018-11-23T07:53:24.063Z,27.50
2018-11-23T07:54:24.068Z,26.80
2018-11-23T07:55:24.080Z,27.30
2018-11-23T07:56:24.086Z,26.50
2018-11-23T07:57:24.093Z,27.70
2018-11-23T07:58:24.099Z,26.50
2018-11-23T07:59:24.106Z,27.00
2018-11-23T08:00:24.130Z,26.80
2018-11-23T08:01:24.123Z,28.20
2018-11-23T08:02:24.128Z,27.90
2018-11-23T08:03:24.135Z,27.40
2018-11-23T08:04:24.175Z,27.40
2018-11-23T08:05:24.150Z,27.50
2018-11-23T08:06:24.157Z,27.10
2018-11-23T08:07:24.165Z,27.10
2018-11-23T08:08:24.173Z,28.30
2018-11-23T08:09:24.244Z,27.10
2018-11-23T08:10:24.187Z,28.00
2018-11-23T08:11:25.094Z,27.90
2018-11-23T08:12:24.200Z,27.90
2018-11-23T08:13:24.207Z,27.90
2018-11-23T08:14:24.215Z,29.30
2018-11-23T08:15:24.321Z,27.10
2018-11-23T08:16:24.233Z,28.20
2018-11-23T08:17:24.239Z,28.30
2018-11-23T08:18:24.246Z,27.70
2018-11-23T08:19:24.253Z,28.30
2018-11-23T08:20:24.260Z,28.40
2018-11-23T08:21:24.269Z,27.50
2018-11-23T08:22:24.277Z,28.20
2018-11-23T08:23:24.293Z,28.60
2018-11-23T08:24:24.290Z,28.10
2018-11-23T08:25:24.298Z,28.60
2018-11-23T08:26:24.304Z,29.20
2018-11-23T08:27:24.313Z,28.10
2018-11-23T08:28:24.321Z,28.80
2018-11-23T08:29:24.333Z,28.20
2018-11-23T08:30:24.333Z,26.90
2018-11-23T08:31:24.341Z,27.00
2018-11-23T08:32:24.350Z,27.40
2018-11-23T08:33:24.363Z,27.90
2018-11-23T08:34:24.378Z,27.00
2018-11-23T08:35:24.371Z,28.10
2018-11-23T08:36:24.388Z,27.00
2018-11-23T08:37:24.388Z,27.30
2018-11-23T08:38:24.397Z,27.50
2018-11-23T08:39:24.402Z,27.80
2018-11-23T08:40:24.410Z,27.50
2018-11-23T08:41:24.428Z,28.20
2018-11-23T08:42:24.424Z,27.20
2018-11-23T08:43:24.432Z,28.00
2018-11-23T08:44:24.758Z,27.80
2018-11-23T08:45:24.448Z,28.20
2018-11-23T08:46:24.456Z,28.20
2018-11-23T08:47:24.462Z,27.30
2018-11-23T08:48:24.470Z,28.70
2018-11-23T08:49:24.477Z,26.80
2018-11-23T08:50:24.484Z,27.20
2018-11-23T08:51:24.494Z,27.30
2018-11-23T08:52:24.504Z,27.10
2018-11-23T08:53:27.925Z,27.00
2018-11-23T08:54:24.560Z,28.30
2018-11-23T08:56:24.536Z,28.40
2018-11-23T08:57:24.541Z,26.70
2018-11-23T08:58:24.547Z,27.70
2018-11-23T08:59:24.547Z,26.70
2018-11-23T09:00:24.555Z,26.90
2018-11-23T09:01:24.566Z,27.00
2018-11-23T09:02:24.571Z,27.70
2018-11-23T09:03:24.578Z,26.30
2018-11-23T09:04:24.587Z,28.80
2018-11-23T09:05:24.593Z,27.50
2018-11-23T09:06:24.602Z,28.10
2018-11-23T09:07:24.608Z,26.30
2018-11-23T09:08:24.621Z,26.00
2018-11-23T09:09:24.626Z,27.20
2018-11-23T09:10:24.645Z,27.00
2018-11-23T09:11:24.639Z,27.00
2018-11-23T09:12:24.649Z,28.20
2018-11-23T09:13:25.064Z,27.30
2018-11-23T09:14:24.665Z,27.10
2018-11-23T09:15:24.675Z,26.80
2018-11-23T09:16:24.695Z,26.90
2018-11-23T09:17:24.689Z,26.40
2018-11-23T09:18:24.697Z,27.40
2018-11-23T09:19:24.707Z,26.20
2018-11-23T09:20:24.715Z,26.00
2018-11-23T09:21:24.724Z,25.80
2018-11-23T09:22:24.728Z,25.70
2018-11-23T09:23:24.735Z,26.00
2018-11-23T09:24:24.767Z,24.90
2018-11-23T09:25:24.786Z,25.60
2018-11-23T09:26:24.757Z,26.10
2018-11-23T09:27:24.767Z,25.50
2018-11-23T09:28:24.775Z,26.70
2018-11-23T09:29:24.784Z,25.90
2018-11-23T09:30:24.793Z,25.70
2018-11-23T09:31:24.799Z,25.90
2018-11-23T09:32:24.808Z,26.10
2018-11-23T09:33:24.815Z,26.30
2018-11-23T09:34:24.822Z,25.20
2018-11-23T09:35:24.832Z,25.30
2018-11-23T09:36:24.839Z,26.00
2018-11-23T09:37:24.849Z,25.30
2018-11-23T09:38:24.856Z,26.00
2018-11-23T09:39:24.864Z,25.20
2018-11-23T09:40:24.871Z,26.20
2018-11-23T09:41:24.892Z,25.90
2018-11-23T09:42:24.888Z,25.90
2018-11-23T09:43:24.895Z,28.00
2018-11-23T09:44:24.939Z,25.30
2018-11-23T09:45:24.912Z,25.10
2018-11-23T09:46:24.920Z,25.50
2018-11-23T09:47:24.933Z,26.70
2018-11-23T09:48:24.945Z,26.10
2018-11-23T09:49:24.945Z,25.00
2018-11-23T09:50:24.953Z,25.50
2018-11-23T09:51:25.004Z,25.30
2018-11-23T09:52:24.970Z,25.10
2018-11-23T09:53:24.982Z,24.90
2018-11-23T09:54:24.985Z,24.60
2018-11-23T09:55:24.995Z,25.40
2018-11-23T09:56:25.003Z,25.50
2018-11-23T09:57:25.016Z,25.50
2018-11-23T09:58:25.020Z,26.80
2018-11-23T09:59:25.027Z,24.80
2018-11-23T10:00:25.037Z,25.40
2018-11-23T10:01:25.046Z,25.80
2018-11-23T10:02:25.055Z,25.00
2018-11-23T10:03:25.074Z,25.00
2018-11-23T10:04:25.086Z,24.90
2018-11-23T10:05:25.081Z,24.60
2018-11-23T10:06:25.088Z,25.20
2018-11-23T10:07:25.097Z,26.10
2018-11-23T10:08:25.104Z,24.30
2018-11-23T10:09:25.124Z,24.80
2018-11-23T10:10:25.124Z,24.60
2018-11-23T10:11:25.131Z,23.70
2018-11-23T10:12:25.147Z,24.70
2018-11-23T10:13:25.145Z,25.30
2018-11-23T10:14:25.174Z,25.10
2018-11-23T10:15:25.163Z,24.40
2018-11-23T10:16:25.171Z,23.90
2018-11-23T10:17:25.181Z,24.10
2018-11-23T10:18:25.186Z,23.90
2018-11-23T10:19:25.196Z,24.10
2018-11-23T10:20:25.209Z,23.00
2018-11-23T10:21:25.214Z,24.70
2018-11-23T10:22:25.221Z,25.30
2018-11-23T10:23:25.230Z,25.40
2018-11-23T10:24:25.248Z,25.20
2018-11-23T10:25:25.247Z,24.40
2018-11-23T10:26:25.255Z,24.10
2018-11-23T10:27:25.263Z,24.00
2018-11-23T10:28:25.277Z,24.60
2018-11-23T10:29:25.282Z,25.20
2018-11-23T10:30:25.290Z,24.40
2018-11-23T10:31:25.319Z,24.60
2018-11-23T10:32:25.307Z,24.10
2018-11-23T10:33:28.340Z,25.50
2018-11-23T10:34:25.323Z,24.60
2018-11-23T10:35:25.342Z,24.10
2018-11-23T10:36:25.342Z,23.30
2018-11-23T10:37:25.349Z,24.50
2018-11-23T10:38:25.363Z,24.50
2018-11-23T10:39:25.368Z,24.10
2018-11-23T10:40:25.376Z,23.50
2018-11-23T10:41:25.386Z,23.60
2018-11-23T10:42:25.393Z,23.80
2018-11-23T10:43:25.401Z,23.50
2018-11-23T10:44:25.410Z,24.40
2018-11-23T10:45:25.418Z,24.30
2018-11-23T10:46:25.427Z,24.20
2018-11-23T10:47:25.437Z,24.20
2018-11-23T10:48:25.451Z,23.70
2018-11-23T10:49:25.460Z,24.90
2018-11-23T10:50:25.464Z,24.90
2018-11-23T10:51:25.486Z,24.10
2018-11-23T10:52:25.520Z,24.10
2018-11-23T10:53:25.493Z,25.00
2018-11-23T10:54:25.499Z,23.50
2018-11-23T10:55:25.506Z,24.80
2018-11-23T10:56:25.517Z,24.60
2018-11-23T10:57:25.525Z,24.10
2018-11-23T10:58:25.537Z,24.70
2018-11-23T10:59:25.544Z,23.50
2018-11-23T11:00:25.592Z,24.70
2018-11-23T11:01:25.564Z,25.20
2018-11-23T11:02:25.577Z,23.30
2018-11-23T11:03:25.581Z,24.70
2018-11-23T11:04:25.586Z,24.10
2018-11-23T11:05:25.594Z,24.30
2018-11-23T11:06:25.607Z,24.00
2018-11-23T11:07:25.819Z,23.70
2018-11-23T11:08:25.623Z,23.80
2018-11-23T11:09:25.631Z,24.50
2018-11-23T11:10:25.639Z,22.70
2018-11-23T11:11:25.649Z,23.60
2018-11-23T11:12:25.658Z,24.90
2018-11-23T11:13:25.666Z,22.80
2018-11-23T11:14:25.679Z,24.20
2018-11-23T11:15:25.684Z,24.30
2018-11-23T11:16:25.693Z,24.30
2018-11-23T11:17:25.702Z,23.80
2018-11-23T11:18:25.711Z,23.00
2018-11-23T11:19:25.719Z,24.80
2018-11-23T11:20:25.729Z,23.20
2018-11-23T11:21:25.737Z,23.30
2018-11-23T11:22:25.746Z,23.70
2018-11-23T11:23:25.756Z,29.00
2018-11-23T11:24:25.764Z,23.80
2018-11-23T11:25:25.773Z,23.20
2018-11-23T11:26:25.782Z,24.20
2018-11-23T11:27:25.794Z,23.40
2018-11-23T11:28:25.799Z,23.50
2018-11-23T11:29:25.812Z,24.00
2018-11-23T11:30:25.817Z,24.00
2018-11-23T11:31:25.828Z,24.00
2018-11-23T11:32:25.839Z,24.10
2018-11-23T11:33:25.849Z,25.20
2018-11-23T11:34:25.854Z,23.60
2018-11-23T11:35:25.869Z,22.70
2018-11-23T11:36:25.873Z,23.90
2018-11-23T11:37:25.886Z,23.50
2018-11-23T11:38:25.890Z,24.30
2018-11-23T11:39:25.899Z,23.50
2018-11-23T11:40:25.909Z,24.10
2018-11-23T11:41:25.917Z,24.00
2018-11-23T11:42:25.928Z,24.30
2018-11-23T11:43:25.945Z,23.80
2018-11-23T11:44:25.945Z,24.30
2018-11-23T11:45:25.959Z,23.50
2018-11-23T11:46:25.964Z,24.20
2018-11-23T11:47:25.973Z,24.00
2018-11-23T11:48:25.980Z,24.10
2018-11-23T11:49:25.992Z,23.20
2018-11-23T11:50:25.998Z,23.60
2018-11-23T11:51:26.014Z,23.70
2018-11-23T11:52:26.118Z,23.10
2018-11-23T11:53:26.032Z,23.80
2018-11-23T11:54:26.041Z,23.20
2018-11-23T11:55:26.047Z,23.00
2018-11-23T11:56:26.057Z,23.60
2018-11-23T11:57:26.066Z,22.90
2018-11-23T11:58:26.076Z,23.00
2018-11-23T11:59:26.085Z,22.80
2018-11-23T12:00:26.103Z,23.30
2018-11-23T12:01:26.104Z,23.00
2018-11-23T12:02:26.112Z,22.20
2018-11-23T12:03:26.121Z,23.00
2018-11-23T12:04:26.130Z,23.40
2018-11-23T12:05:26.144Z,22.20
2018-11-23T12:06:26.157Z,22.50
2018-11-23T12:07:26.159Z,24.10
2018-11-23T12:08:26.174Z,23.10
2018-11-23T12:09:26.176Z,22.30
2018-11-23T12:10:26.188Z,22.50
2018-11-23T12:11:26.199Z,22.70
2018-11-23T12:12:26.204Z,22.50
2018-11-23T12:13:26.218Z,22.40
2018-11-23T12:14:26.229Z,23.00
2018-11-23T12:15:26.234Z,23.70
2018-11-23T12:16:26.244Z,23.60
2018-11-23T12:17:26.252Z,22.10
2018-11-23T12:18:26.261Z,22.70
2018-11-23T12:19:26.273Z,23.10
2018-11-23T12:20:26.281Z,23.60
2018-11-23T12:21:26.290Z,22.50
2018-11-23T12:22:26.303Z,22.90
2018-11-23T12:23:26.308Z,22.80
2018-11-23T12:24:26.317Z,22.00
2018-11-23T12:25:26.355Z,22.00
2018-11-23T12:26:26.341Z,22.30
2018-11-23T12:27:29.348Z,22.80
2018-11-23T12:28:26.356Z,23.60
2018-11-23T12:29:26.369Z,22.60
2018-11-23T12:30:26.373Z,22.90
2018-11-23T12:31:26.386Z,23.10
2018-11-23T12:32:26.393Z,22.70
2018-11-23T12:33:26.418Z,22.70
2018-11-23T12:34:26.412Z,22.80
2018-11-23T12:35:26.421Z,21.60
2018-11-23T12:36:26.432Z,21.90
2018-11-23T12:37:26.441Z,21.80
2018-11-23T12:38:26.450Z,21.40
2018-11-23T12:39:26.459Z,21.40
2018-11-23T12:40:26.469Z,21.90
2018-11-23T12:41:26.477Z,21.90
2018-11-23T12:42:26.487Z,21.30
2018-11-23T12:43:26.499Z,21.10
2018-11-23T12:44:26.506Z,21.20
2018-11-23T12:45:26.518Z,21.10
2018-11-23T12:46:26.525Z,21.70
2018-11-23T12:47:26.562Z,21.40
2018-11-23T12:48:26.543Z,21.40
2018-11-23T12:49:26.554Z,19.90
2018-11-23T12:50:26.562Z,20.70
2018-11-23T12:51:26.573Z,20.60
2018-11-23T12:52:26.587Z,20.80
2018-11-23T12:53:26.591Z,20.60